Time;durP1;ratioP1;P1;durP2;ratioP2;P2;SDS_P1;SDS_P2;PMS_P1;PMS_P2;Temp;Humidity;BMP_temperature;BMP_pressure;BME280_temperature;BME280_humidity;BME280_pressure;Samples;Min_cycle;Max_cycle;Signal;HPM_P1;HPM_P2
2023/06/01 00:00:44;;;;;;;2.83;0.47;;;;;;;;;;2102926;28;20016;-59
2023/06/01 00:02:03;;;;;;;3.75;0.85;;;;;;;;;;2103307;28;20059;-59
2023/06/01 00:03:23;;;;;;;2.55;0.47;;;;;;;;;;2105216;28;20028;-60
2023/06/01 00:04:42;;;;;;;4.00;0.60;;;;;;;;;;2104234;28;20036;-59
2023/06/01 00:06:01;;;;;;;2.53;0.63;;;;;;;;;;2103857;28;20107;-59
2023/06/01 00:07:20;;;;;;;5.85;0.60;;;;;;;;;;2105353;28;20032;-60
2023/06/01 00:08:40;;;;;;;4.05;0.50;;;;;;;;;;2104156;28;20040;-59
2023/06/01 00:10:00;;;;;;;2.67;0.82;;;;;;;;;;2101923;28;20568;-61
2023/06/01 00:11:18;;;;;;;4.95;0.70;;;;;;;;;;2103539;28;20480;-60
2023/06/01 00:12:37;;;;;;;4.15;0.77;;;;;;;;;;2103705;28;20028;-63
2023/06/01 00:13:56;;;;;;;0.63;0.60;;;;;;;;;;2093768;28;20535;-59
2023/06/01 00:15:15;;;;;;;1.38;0.45;;;;;;;;;;2102437;28;20028;-60
2023/06/01 00:16:34;;;;;;;0.75;0.40;;;;;;;;;;2104403;28;20024;-59
2023/06/01 00:17:53;;;;;;;2.90;0.55;;;;;;;;;;2104665;28;20031;-60
2023/06/01 00:19:12;;;;;;;8.60;0.50;;;;;;;;;;2103061;28;20028;-59
2023/06/01 00:20:32;;;;;;;0.88;0.60;;;;;;;;;;2100649;28;20512;-58
2023/06/01 00:21:51;;;;;;;1.60;0.60;;;;;;;;;;2104351;28;20111;-58
2023/06/01 00:23:10;;;;;;;1.73;0.60;;;;;;;;;;2104320;28;20489;-58
2023/06/01 00:24:29;;;;;;;3.35;0.90;;;;;;;;;;2105117;28;20106;-58
2023/06/01 00:25:48;;;;;;;2.70;0.68;;;;;;;;;;2103978;28;20024;-58
2023/06/01 00:27:07;;;;;;;5.07;0.82;;;;;;;;;;2104298;28;20033;-59
2023/06/01 00:28:27;;;;;;;3.83;0.70;;;;;;;;;;2104079;28;20393;-58
2023/06/01 00:29:46;;;;;;;6.38;0.68;;;;;;;;;;2103900;28;20032;-58
2023/06/01 00:31:05;;;;;;;4.13;0.65;;;;;;;;;;2103774;28;20028;-58
2023/06/01 00:32:24;;;;;;;5.07;0.60;;;;;;;;;;2104481;28;20036;-59
2023/06/01 00:33:43;;;;;;;5.20;0.85;;;;;;;;;;2100631;28;20036;-59
2023/06/01 00:35:02;;;;;;;3.30;0.60;;;;;;;;;;2105173;28;20107;-59
2023/06/01 00:36:21;;;;;;;2.55;0.55;;;;;;;;;;2102567;28;20493;-59
2023/06/01 00:37:40;;;;;;;0.88;0.47;;;;;;;;;;2099858;28;20028;-58
2023/06/01 00:39:02;;;;;;;4.57;0.75;;;;;;;;;;2102657;28;20028;-59
2023/06/01 00:40:21;;;;;;;2.67;0.80;;;;;;;;;;2102183;28;20556;-60
2023/06/01 00:41:40;;;;;;;0.75;0.40;;;;;;;;;;2104491;28;20024;-58
2023/06/01 00:43:00;;;;;;;1.88;0.50;;;;;;;;;;2104612;28;20488;-60
2023/06/01 00:44:19;;;;;;;1.70;0.80;;;;;;;;;;2103402;28;20028;-59
2023/06/01 00:45:38;;;;;;;5.95;0.75;;;;;;;;;;2104392;28;20028;-59
2023/06/01 00:46:59;;;;;;;2.33;0.50;;;;;;;;;;2103709;28;20036;-59
2023/06/01 00:48:18;;;;;;;4.53;0.68;;;;;;;;;;2103511;28;20122;-58
2023/06/01 00:49:37;;;;;;;1.35;0.65;;;;;;;;;;2103557;28;20036;-59
2023/06/01 00:50:58;;;;;;;4.80;0.77;;;;;;;;;;2101168;28;20037;-59
2023/06/01 00:52:17;;;;;;;2.63;0.45;;;;;;;;;;2102257;28;20035;-59
2023/06/01 00:53:36;;;;;;;3.28;0.80;;;;;;;;;;2104017;28;20098;-58
2023/06/01 00:54:55;;;;;;;4.50;0.85;;;;;;;;;;2104337;28;20020;-58
2023/06/01 00:56:15;;;;;;;1.45;0.50;;;;;;;;;;2099251;28;20036;-59
2023/06/01 00:57:34;;;;;;;2.78;0.90;;;;;;;;;;2103929;28;20031;-59
2023/06/01 00:58:53;;;;;;;1.15;0.70;;;;;;;;;;2100902;28;20020;-58
2023/06/01 01:00:12;;;;;;;3.90;0.50;;;;;;;;;;2102741;28;20032;-58
2023/06/01 01:01:31;;;;;;;0.82;0.50;;;;;;;;;;2101855;28;20052;-59
2023/06/01 01:02:51;;;;;;;4.32;1.02;;;;;;;;;;2104258;28;20028;-62
2023/06/01 01:04:13;;;;;;;2.47;0.60;;;;;;;;;;2103435;28;20596;-59
2023/06/01 01:05:33;;;;;;;2.55;0.57;;;;;;;;;;2103233;28;20024;-59
2023/06/01 01:07:11;;;;;;;1.20;0.57;;;;;;;;;;2104213;28;20032;-57
2023/06/01 01:08:56;;;;;;;1.13;0.60;;;;;;;;;;2101372;28;20040;-59
2023/06/01 01:10:24;;;;;;;2.10;0.63;;;;;;;;;;2100877;28;20076;-59
2023/06/01 01:11:48;;;;;;;1.80;0.60;;;;;;;;;;2104155;28;20385;-58
2023/06/01 01:13:10;;;;;;;2.97;0.57;;;;;;;;;;2102120;28;20028;-63
2023/06/01 01:14:49;;;;;;;1.75;0.60;;;;;;;;;;2102521;28;20024;-58
2023/06/01 01:16:12;;;;;;;3.38;0.55;;;;;;;;;;2104484;28;20024;-58
2023/06/01 01:17:34;;;;;;;3.90;0.80;;;;;;;;;;2103425;28;20062;-60
2023/06/01 01:19:05;;;;;;;2.30;0.50;;;;;;;;;;2101583;28;20023;-64
2023/06/01 01:20:26;;;;;;;1.00;0.50;;;;;;;;;;2103912;28;20024;-60
2023/06/01 01:21:50;;;;;;;1.00;0.60;;;;;;;;;;2102869;28;20081;-59
2023/06/01 01:23:12;;;;;;;1.77;0.60;;;;;;;;;;2103490;28;20025;-58
2023/06/01 01:24:50;;;;;;;0.85;0.60;;;;;;;;;;2104555;28;20576;-59
2023/06/01 01:26:19;;;;;;;2.67;0.70;;;;;;;;;;2102374;28;20745;-59
2023/06/01 01:27:41;;;;;;;0.88;0.60;;;;;;;;;;2103630;28;20401;-59
2023/06/01 01:29:03;;;;;;;1.80;0.68;;;;;;;;;;2100702;28;20024;-59
2023/06/01 01:30:26;;;;;;;1.02;0.40;;;;;;;;;;2102861;28;20388;-59
2023/06/01 01:31:45;;;;;;;0.98;0.43;;;;;;;;;;2104036;28;20036;-58
2023/06/01 01:33:04;;;;;;;2.95;0.55;;;;;;;;;;2103481;28;20032;-60
2023/06/01 01:34:26;;;;;;;2.45;0.55;;;;;;;;;;2104484;28;20055;-59
2023/06/01 01:35:45;;;;;;;1.33;0.50;;;;;;;;;;2104364;28;20028;-59
2023/06/01 01:37:05;;;;;;;1.25;0.60;;;;;;;;;;2104253;28;20051;-59
2023/06/01 01:38:23;;;;;;;3.72;0.43;;;;;;;;;;2102764;28;20020;-58
2023/06/01 01:39:42;;;;;;;3.40;0.60;;;;;;;;;;2103595;28;20646;-59
2023/06/01 01:41:02;;;;;;;0.88;0.40;;;;;;;;;;2102219;28;20031;-59
2023/06/01 01:42:21;;;;;;;0.65;0.60;;;;;;;;;;2104763;28;20032;-59
2023/06/01 01:43:41;;;;;;;4.88;0.70;;;;;;;;;;2101875;28;20496;-59
2023/06/01 01:45:00;;;;;;;7.47;1.33;;;;;;;;;;2104132;28;20032;-58
2023/06/01 01:46:22;;;;;;;7.88;0.65;;;;;;;;;;2104562;28;20488;-58
2023/06/01 01:47:44;;;;;;;3.67;0.65;;;;;;;;;;2102970;28;20135;-58
2023/06/01 01:49:17;;;;;;;4.78;0.55;;;;;;;;;;2102891;28;20028;-59
2023/06/01 01:50:38;;;;;;;0.65;0.32;;;;;;;;;;2103473;28;20028;-57
2023/06/01 01:52:17;;;;;;;0.80;0.35;;;;;;;;;;2101998;28;20036;-58
2023/06/01 01:53:38;;;;;;;1.40;0.38;;;;;;;;;;2103638;28;20106;-59
2023/06/01 01:54:58;;;;;;;2.20;0.50;;;;;;;;;;2102958;28;20032;-59
2023/06/01 01:56:18;;;;;;;0.47;0.47;;;;;;;;;;2104144;28;20024;-59
2023/06/01 01:57:37;;;;;;;0.68;0.50;;;;;;;;;;2103812;28;20036;-59
2023/06/01 01:58:56;;;;;;;0.75;0.38;;;;;;;;;;2102459;28;20636;-58
2023/06/01 02:00:15;;;;;;;1.05;0.50;;;;;;;;;;2103567;28;20032;-59
2023/06/01 02:01:35;;;;;;;4.60;0.50;;;;;;;;;;2103721;28;20548;-59
2023/06/01 02:02:54;;;;;;;0.77;0.60;;;;;;;;;;2103688;28;20402;-59
2023/06/01 02:04:13;;;;;;;4.45;0.55;;;;;;;;;;2104215;28;20392;-59
2023/06/01 02:05:32;;;;;;;0.45;0.40;;;;;;;;;;2103191;28;20473;-59
2023/06/01 02:06:51;;;;;;;1.60;0.50;;;;;;;;;;2103409;28;20036;-59
2023/06/01 02:08:11;;;;;;;2.63;0.30;;;;;;;;;;2104534;28;20044;-59
2023/06/01 02:09:30;;;;;;;1.25;0.30;;;;;;;;;;2102394;28;20028;-59
2023/06/01 02:10:48;;;;;;;1.67;0.30;;;;;;;;;;2106878;28;20024;-60
2023/06/01 02:12:07;;;;;;;1.15;0.30;;;;;;;;;;2106737;28;20028;-58
2023/06/01 02:13:26;;;;;;;2.22;0.30;;;;;;;;;;2099524;28;20017;-60
2023/06/01 02:14:45;;;;;;;1.05;0.30;;;;;;;;;;2104051;28;20028;-59
2023/06/01 02:16:04;;;;;;;0.40;0.30;;;;;;;;;;2106373;28;20028;-59
2023/06/01 02:17:25;;;;;;;2.17;0.30;;;;;;;;;;2106185;28;20016;-59
2023/06/01 02:18:45;;;;;;;1.13;0.40;;;;;;;;;;2105760;28;20106;-59
2023/06/01 02:20:05;;;;;;;0.80;0.50;;;;;;;;;;2105826;28;20020;-59
2023/06/01 02:21:24;;;;;;;0.75;0.30;;;;;;;;;;2103706;28;20024;-59
2023/06/01 02:22:44;;;;;;;0.82;0.38;;;;;;;;;;2105948;28;20027;-59
2023/06/01 02:24:06;;;;;;;2.85;0.35;;;;;;;;;;2104913;28;20036;-58
2023/06/01 02:25:25;;;;;;;2.47;0.40;;;;;;;;;;2104549;28;20036;-59
2023/06/01 02:26:53;;;;;;;1.30;0.30;;;;;;;;;;2103020;28;20028;-58
2023/06/01 02:28:12;;;;;;;2.65;0.28;;;;;;;;;;2103987;28;20085;-59
2023/06/01 02:29:31;;;;;;;2.83;0.30;;;;;;;;;;2104798;28;20028;-59
2023/06/01 02:30:50;;;;;;;1.80;0.20;;;;;;;;;;2105457;28;20102;-59
2023/06/01 02:32:09;;;;;;;0.45;0.30;;;;;;;;;;2105384;28;20037;-59
2023/06/01 02:33:28;;;;;;;0.47;0.32;;;;;;;;;;2105256;28;20064;-59
2023/06/01 02:34:47;;;;;;;0.75;0.30;;;;;;;;;;2103547;28;20392;-57
2023/06/01 02:36:06;;;;;;;2.45;0.50;;;;;;;;;;2105054;28;20036;-59
2023/06/01 02:37:25;;;;;;;2.40;0.52;;;;;;;;;;2105624;28;20036;-58
2023/06/01 02:38:44;;;;;;;0.75;0.30;;;;;;;;;;2105272;28;20565;-59
2023/06/01 02:40:03;;;;;;;0.40;0.30;;;;;;;;;;2104719;28;20485;-60
2023/06/01 02:41:22;;;;;;;4.75;0.50;;;;;;;;;;2104302;28;20563;-58
2023/06/01 02:42:41;;;;;;;2.40;0.22;;;;;;;;;;2105858;28;20032;-57
2023/06/01 02:44:00;;;;;;;1.48;0.30;;;;;;;;;;2104495;28;20032;-59
2023/06/01 02:45:19;;;;;;;0.20;0.10;;;;;;;;;;2105226;28;20028;-58
2023/06/01 02:46:38;;;;;;;1.23;0.20;;;;;;;;;;2106018;28;20392;-58
2023/06/01 02:47:58;;;;;;;1.45;0.20;;;;;;;;;;2106178;28;20024;-59
2023/06/01 02:49:16;;;;;;;1.40;0.47;;;;;;;;;;2103375;28;20032;-59
2023/06/01 02:50:36;;;;;;;2.20;0.70;;;;;;;;;;2104835;28;20044;-59
2023/06/01 02:51:54;;;;;;;0.52;0.20;;;;;;;;;;2104569;28;20020;-58
2023/06/01 02:53:13;;;;;;;2.17;0.70;;;;;;;;;;2103088;28;20024;-58
2023/06/01 02:54:32;;;;;;;2.10;0.30;;;;;;;;;;2104606;28;20107;-58
2023/06/01 02:55:52;;;;;;;1.42;0.20;;;;;;;;;;2100150;28;20032;-59
2023/06/01 02:57:11;;;;;;;1.73;0.38;;;;;;;;;;2106241;28;20500;-59
2023/06/01 02:58:30;;;;;;;2.50;0.35;;;;;;;;;;2104787;28;20036;-60
2023/06/01 02:59:49;;;;;;;1.75;0.30;;;;;;;;;;2104640;28;20040;-59
2023/06/01 03:01:11;;;;;;;1.35;0.30;;;;;;;;;;2104443;28;20055;-59
2023/06/01 03:02:30;;;;;;;3.50;0.30;;;;;;;;;;2104773;28;20032;-58
2023/06/01 03:03:52;;;;;;;0.50;0.30;;;;;;;;;;2105922;28;20032;-58
2023/06/01 03:05:14;;;;;;;1.00;0.52;;;;;;;;;;2106141;28;20119;-59
2023/06/01 03:06:37;;;;;;;3.15;0.57;;;;;;;;;;2102891;28;20040;-58
2023/06/01 03:07:56;;;;;;;3.10;0.40;;;;;;;;;;2103671;28;20056;-59
2023/06/01 03:09:15;;;;;;;3.33;0.30;;;;;;;;;;2102303;28;20115;-58
2023/06/01 03:10:34;;;;;;;1.63;0.30;;;;;;;;;;2105691;28;20127;-59
2023/06/01 03:11:53;;;;;;;0.73;0.47;;;;;;;;;;2103589;28;20065;-59
2023/06/01 03:13:12;;;;;;;2.63;0.32;;;;;;;;;;2104183;28;20024;-59
2023/06/01 03:14:31;;;;;;;0.30;0.20;;;;;;;;;;2104092;28;20059;-58
2023/06/01 03:15:50;;;;;;;0.75;0.30;;;;;;;;;;2102798;28;20028;-58
2023/06/01 03:17:09;;;;;;;0.47;0.30;;;;;;;;;;2104434;28;20142;-59
2023/06/01 03:18:28;;;;;;;0.68;0.30;;;;;;;;;;2105471;28;20028;-59
2023/06/01 03:19:47;;;;;;;1.20;0.22;;;;;;;;;;2103703;28;20517;-59
2023/06/01 03:21:06;;;;;;;1.95;0.38;;;;;;;;;;2105824;28;20024;-59
2023/06/01 03:22:25;;;;;;;0.25;0.20;;;;;;;;;;2103888;28;20033;-58
2023/06/01 03:23:44;;;;;;;0.30;0.20;;;;;;;;;;2103835;28;20384;-59
2023/06/01 03:25:06;;;;;;;1.48;0.30;;;;;;;;;;2105061;28;20063;-58
2023/06/01 03:26:26;;;;;;;5.30;0.50;;;;;;;;;;2103998;28;20473;-59
2023/06/01 03:27:45;;;;;;;1.45;0.45;;;;;;;;;;2102798;28;20508;-58
2023/06/01 03:29:04;;;;;;;7.63;0.82;;;;;;;;;;2103057;28;20023;-58
2023/06/01 03:30:23;;;;;;;2.70;0.43;;;;;;;;;;2099769;28;20032;-58
2023/06/01 03:31:43;;;;;;;1.10;0.40;;;;;;;;;;2101487;28;20032;-58
2023/06/01 03:33:02;;;;;;;2.88;0.60;;;;;;;;;;2104351;28;20477;-59
2023/06/01 03:34:21;;;;;;;0.93;0.30;;;;;;;;;;2100691;28;20020;-58
2023/06/01 03:35:40;;;;;;;3.75;0.40;;;;;;;;;;2102631;28;20059;-58
2023/06/01 03:37:00;;;;;;;2.95;0.70;;;;;;;;;;2104770;28;20016;-58
2023/06/01 03:38:18;;;;;;;2.17;0.47;;;;;;;;;;2104912;28;20025;-58
2023/06/01 03:39:39;;;;;;;3.42;0.50;;;;;;;;;;2106137;28;20028;-59
2023/06/01 03:40:57;;;;;;;1.30;0.30;;;;;;;;;;2104086;28;20065;-59
2023/06/01 03:42:16;;;;;;;11.30;0.40;;;;;;;;;;2103159;28;20037;-59
2023/06/01 03:43:35;;;;;;;6.28;0.50;;;;;;;;;;2105273;28;20041;-58
2023/06/01 03:44:54;;;;;;;4.07;0.40;;;;;;;;;;2104557;28;20110;-58
2023/06/01 03:46:13;;;;;;;0.80;0.43;;;;;;;;;;2107279;28;20023;-59
2023/06/01 03:47:33;;;;;;;0.73;0.25;;;;;;;;;;2104502;28;20036;-58
2023/06/01 03:48:52;;;;;;;1.67;0.38;;;;;;;;;;2103664;28;20035;-59
2023/06/01 03:50:11;;;;;;;0.63;0.30;;;;;;;;;;2103180;28;20031;-59
2023/06/01 03:51:31;;;;;;;2.65;0.40;;;;;;;;;;2105610;28;20107;-59
2023/06/01 03:52:50;;;;;;;2.08;0.63;;;;;;;;;;2102552;28;20024;-58
2023/06/01 03:54:09;;;;;;;0.85;0.50;;;;;;;;;;2101984;28;20473;-59
2023/06/01 03:55:29;;;;;;;1.95;0.50;;;;;;;;;;2102606;28;20032;-58
2023/06/01 03:56:48;;;;;;;3.38;0.50;;;;;;;;;;2105334;28;20088;-59
2023/06/01 03:58:07;;;;;;;1.80;0.70;;;;;;;;;;2106126;28;20614;-59
2023/06/01 03:59:26;;;;;;;5.72;0.60;;;;;;;;;;2104195;28;20456;-59
2023/06/01 04:00:46;;;;;;;1.98;0.52;;;;;;;;;;2100788;28;20119;-58
2023/06/01 04:02:06;;;;;;;1.52;0.43;;;;;;;;;;2100775;28;20514;-58
2023/06/01 04:03:27;;;;;;;0.65;0.40;;;;;;;;;;2102094;28;20403;-58
2023/06/01 04:04:46;;;;;;;2.10;0.38;;;;;;;;;;2102454;28;20042;-58
2023/06/01 04:06:11;;;;;;;1.17;0.60;;;;;;;;;;2100055;28;20401;-58
2023/06/01 04:07:30;;;;;;;1.05;0.38;;;;;;;;;;2105062;28;20385;-58
2023/06/01 04:08:55;;;;;;;1.02;0.50;;;;;;;;;;2101303;28;20032;-59
2023/06/01 04:10:16;;;;;;;2.60;0.55;;;;;;;;;;2103549;28;20060;-57
2023/06/01 04:11:35;;;;;;;0.57;0.38;;;;;;;;;;2101933;28;20033;-59
2023/06/01 04:12:54;;;;;;;4.72;0.75;;;;;;;;;;2103796;28;20052;-58
2023/06/01 04:14:13;;;;;;;4.55;0.90;;;;;;;;;;2104838;28;20492;-59
2023/06/01 04:15:32;;;;;;;0.77;0.43;;;;;;;;;;2104991;28;20024;-58
2023/06/01 04:16:51;;;;;;;4.65;0.63;;;;;;;;;;2104136;28;20365;-59
2023/06/01 04:18:11;;;;;;;2.35;0.70;;;;;;;;;;2103844;28;20439;-59
2023/06/01 04:19:30;;;;;;;2.13;0.50;;;;;;;;;;2104206;28;20024;-58
2023/06/01 04:20:49;;;;;;;1.40;0.40;;;;;;;;;;2103441;28;20504;-59
2023/06/01 04:22:08;;;;;;;2.22;0.63;;;;;;;;;;2101870;28;20066;-58
2023/06/01 04:23:27;;;;;;;1.65;0.43;;;;;;;;;;2101756;28;20076;-58
2023/06/01 04:24:46;;;;;;;1.77;0.38;;;;;;;;;;2102825;28;20020;-59
2023/06/01 04:26:06;;;;;;;1.95;0.70;;;;;;;;;;2104026;28;20036;-58
2023/06/01 04:27:26;;;;;;;2.67;0.70;;;;;;;;;;2105185;28;20114;-57
2023/06/01 04:28:45;;;;;;;4.88;0.60;;;;;;;;;;2102389;28;20024;-57
2023/06/01 04:30:07;;;;;;;0.68;0.40;;;;;;;;;;2102035;28;20066;-58
2023/06/01 04:31:26;;;;;;;2.70;0.50;;;;;;;;;;2105040;28;20399;-59
2023/06/01 04:32:47;;;;;;;4.47;0.47;;;;;;;;;;2102908;28;20040;-58
2023/06/01 04:34:06;;;;;;;2.28;0.60;;;;;;;;;;2103168;28;20020;-57
2023/06/01 04:35:25;;;;;;;1.90;0.50;;;;;;;;;;2101189;28;20443;-58
2023/06/01 04:36:44;;;;;;;2.55;1.05;;;;;;;;;;2102712;28;20056;-58
2023/06/01 04:38:03;;;;;;;3.55;0.50;;;;;;;;;;2101510;28;20016;-59
2023/06/01 04:39:22;;;;;;;4.00;0.50;;;;;;;;;;2100776;28;20513;-58
2023/06/01 04:40:41;;;;;;;3.35;0.80;;;;;;;;;;2099168;28;20036;-58
2023/06/01 04:42:01;;;;;;;2.50;0.60;;;;;;;;;;2099206;28;20027;-59
2023/06/01 04:43:20;;;;;;;3.33;0.52;;;;;;;;;;2104489;28;20028;-59
2023/06/01 04:44:41;;;;;;;3.17;0.80;;;;;;;;;;2104874;28;20024;-60
2023/06/01 04:46:04;;;;;;;4.63;0.90;;;;;;;;;;2101733;28;20024;-57
2023/06/01 04:47:22;;;;;;;2.95;1.00;;;;;;;;;;2100405;28;20024;-58
2023/06/01 04:48:44;;;;;;;4.95;0.90;;;;;;;;;;2099919;28;20024;-58
2023/06/01 04:50:10;;;;;;;3.85;0.55;;;;;;;;;;2104527;28;20427;-61
2023/06/01 04:51:30;;;;;;;1.63;0.70;;;;;;;;;;2103465;28;20044;-58
2023/06/01 04:52:49;;;;;;;1.00;0.50;;;;;;;;;;2102376;28;20090;-59
2023/06/01 04:54:09;;;;;;;3.08;0.88;;;;;;;;;;2102050;28;20024;-59
2023/06/01 04:55:28;;;;;;;3.28;0.88;;;;;;;;;;2102713;28;20029;-58
2023/06/01 04:56:47;;;;;;;3.13;0.80;;;;;;;;;;2101465;28;21062;-59
2023/06/01 04:58:06;;;;;;;2.45;0.70;;;;;;;;;;2100269;28;20041;-59
2023/06/01 04:59:25;;;;;;;4.28;0.60;;;;;;;;;;2104596;28;20103;-59
2023/06/01 05:00:45;;;;;;;0.98;0.80;;;;;;;;;;2102240;28;20032;-58
2023/06/01 05:02:04;;;;;;;5.35;0.90;;;;;;;;;;2103743;28;20020;-59
2023/06/01 05:03:23;;;;;;;3.53;0.93;;;;;;;;;;2101440;28;20723;-58
2023/06/01 05:04:42;;;;;;;4.88;0.98;;;;;;;;;;2102618;28;20032;-58
2023/06/01 05:06:01;;;;;;;6.57;0.88;;;;;;;;;;2099537;28;21102;-59
2023/06/01 05:07:21;;;;;;;1.20;0.50;;;;;;;;;;2102635;28;20016;-58
2023/06/01 05:08:40;;;;;;;4.30;1.00;;;;;;;;;;2101631;28;20052;-59
2023/06/01 05:10:03;;;;;;;4.22;0.77;;;;;;;;;;2100350;28;20028;-59
2023/06/01 05:11:22;;;;;;;6.00;0.88;;;;;;;;;;2102459;28;20385;-57
2023/06/01 05:12:41;;;;;;;4.07;1.30;;;;;;;;;;2102653;28;20060;-59
2023/06/01 05:14:02;;;;;;;6.10;1.83;;;;;;;;;;2100491;28;20052;-59
2023/06/01 05:15:21;;;;;;;5.88;1.20;;;;;;;;;;2103479;28;20036;-59
2023/06/01 05:16:40;;;;;;;6.38;1.33;;;;;;;;;;2101653;28;20032;-57
2023/06/01 05:17:59;;;;;;;9.00;3.15;;;;;;;;;;2102001;28;20032;-59
2023/06/01 05:19:18;;;;;;;4.95;1.25;;;;;;;;;;2102043;28;20020;-59
2023/06/01 05:20:37;;;;;;;8.88;1.38;;;;;;;;;;2102970;28;20033;-57
2023/06/01 05:21:56;;;;;;;3.25;1.35;;;;;;;;;;2104794;28;20505;-59
2023/06/01 05:23:15;;;;;;;2.60;1.10;;;;;;;;;;2102984;28;20036;-58
2023/06/01 05:24:34;;;;;;;2.78;0.73;;;;;;;;;;2101377;28;20111;-59
2023/06/01 05:26:01;;;;;;;3.65;0.80;;;;;;;;;;2104597;28;20020;-59
2023/06/01 05:27:20;;;;;;;5.88;0.95;;;;;;;;;;2101032;28;20028;-59
2023/06/01 05:28:39;;;;;;;7.07;1.00;;;;;;;;;;2103882;28;20028;-58
2023/06/01 05:29:58;;;;;;;10.30;1.00;;;;;;;;;;2101120;28;20032;-59
2023/06/01 05:31:17;;;;;;;11.68;1.38;;;;;;;;;;2102211;28;20388;-58
2023/06/01 05:32:36;;;;;;;3.40;1.00;;;;;;;;;;2103242;28;20036;-60
2023/06/01 05:33:55;;;;;;;7.80;1.30;;;;;;;;;;2102093;28;20501;-59
2023/06/01 05:35:14;;;;;;;8.20;1.08;;;;;;;;;;2102076;28;20024;-57
2023/06/01 05:36:33;;;;;;;4.85;1.40;;;;;;;;;;2103117;28;20020;-58
2023/06/01 05:37:52;;;;;;;10.45;1.08;;;;;;;;;;2101094;28;20056;-58
2023/06/01 05:39:11;;;;;;;8.63;1.38;;;;;;;;;;2102758;28;20040;-58
2023/06/01 05:40:30;;;;;;;6.25;1.00;;;;;;;;;;2101934;28;20033;-58
2023/06/01 05:41:50;;;;;;;5.60;1.08;;;;;;;;;;2100810;28;20028;-59
2023/06/01 05:43:09;;;;;;;7.15;1.02;;;;;;;;;;2102824;28;20024;-57
2023/06/01 05:44:28;;;;;;;5.22;1.20;;;;;;;;;;2101227;28;20024;-57
2023/06/01 05:45:48;;;;;;;3.95;1.08;;;;;;;;;;2101129;28;20528;-58
2023/06/01 05:47:07;;;;;;;5.97;1.30;;;;;;;;;;2101693;28;20036;-60
2023/06/01 05:48:26;;;;;;;4.68;1.50;;;;;;;;;;2102615;28;20040;-59
2023/06/01 05:49:45;;;;;;;6.57;1.35;;;;;;;;;;2103177;28;20412;-59
2023/06/01 05:51:07;;;;;;;8.05;1.25;;;;;;;;;;2101749;28;20032;-58
2023/06/01 05:52:26;;;;;;;4.43;1.30;;;;;;;;;;2097738;28;20028;-58
2023/06/01 05:53:45;;;;;;;5.35;1.20;;;;;;;;;;2101130;28;20028;-59
2023/06/01 05:55:05;;;;;;;4.18;0.85;;;;;;;;;;2101149;28;20055;-58
2023/06/01 05:56:23;;;;;;;7.50;0.95;;;;;;;;;;2100657;28;20059;-60
2023/06/01 05:57:42;;;;;;;4.25;1.17;;;;;;;;;;2097773;28;20480;-58
2023/06/01 05:59:01;;;;;;;6.60;0.98;;;;;;;;;;2101349;28;20480;-59
2023/06/01 06:00:20;;;;;;;7.55;0.93;;;;;;;;;;2102256;28;20029;-60
2023/06/01 06:01:40;;;;;;;7.57;1.27;;;;;;;;;;2103788;28;20024;-60
2023/06/01 06:02:59;;;;;;;4.25;1.00;;;;;;;;;;2103860;28;20396;-60
2023/06/01 06:04:18;;;;;;;3.05;0.77;;;;;;;;;;2104653;28;20032;-58
2023/06/01 06:05:37;;;;;;;3.28;0.77;;;;;;;;;;2102676;28;20396;-60
2023/06/01 06:06:56;;;;;;;5.10;1.25;;;;;;;;;;2104387;28;20683;-60
2023/06/01 06:08:15;;;;;;;10.85;0.80;;;;;;;;;;2103430;28;20051;-59
2023/06/01 06:09:34;;;;;;;3.03;0.63;;;;;;;;;;2103666;28;20107;-59
2023/06/01 06:10:53;;;;;;;7.07;1.52;;;;;;;;;;2103510;28;20036;-59
2023/06/01 06:12:12;;;;;;;3.35;0.85;;;;;;;;;;2102685;28;20060;-58
2023/06/01 06:13:31;;;;;;;3.55;1.13;;;;;;;;;;2102884;28;20094;-59
2023/06/01 06:14:50;;;;;;;6.50;1.30;;;;;;;;;;2104340;28;20036;-59
2023/06/01 06:16:09;;;;;;;6.53;1.23;;;;;;;;;;2105093;28;20086;-60
2023/06/01 06:17:28;;;;;;;7.32;1.10;;;;;;;;;;2104142;28;20489;-59
2023/06/01 06:18:47;;;;;;;4.80;0.90;;;;;;;;;;2104001;28;20489;-59
2023/06/01 06:20:07;;;;;;;6.30;1.40;;;;;;;;;;2104200;28;20024;-60
2023/06/01 06:21:26;;;;;;;4.97;1.15;;;;;;;;;;2104561;28;20024;-59
2023/06/01 06:22:45;;;;;;;2.92;0.60;;;;;;;;;;2101790;28;21147;-59
2023/06/01 06:24:05;;;;;;;6.78;1.40;;;;;;;;;;2104873;28;20055;-59
2023/06/01 06:25:24;;;;;;;3.42;0.93;;;;;;;;;;2104669;28;20585;-59
2023/06/01 06:26:43;;;;;;;4.47;0.98;;;;;;;;;;2103362;28;20032;-58
2023/06/01 06:28:03;;;;;;;4.90;1.20;;;;;;;;;;2103114;28;20659;-59
2023/06/01 06:29:22;;;;;;;3.85;0.85;;;;;;;;;;2104342;28;20035;-59
2023/06/01 06:30:41;;;;;;;8.15;1.40;;;;;;;;;;2104235;28;20118;-59
2023/06/01 06:32:00;;;;;;;5.70;0.98;;;;;;;;;;2103095;28;20052;-60
2023/06/01 06:33:19;;;;;;;2.63;1.00;;;;;;;;;;2103671;28;20024;-59
2023/06/01 06:34:38;;;;;;;3.15;0.93;;;;;;;;;;2103498;28;20484;-60
2023/06/01 06:35:57;;;;;;;2.25;0.77;;;;;;;;;;2103332;28;20032;-59
2023/06/01 06:37:15;;;;;;;3.30;0.80;;;;;;;;;;2104696;28;20040;-60
2023/06/01 06:38:34;;;;;;;13.05;1.10;;;;;;;;;;2103200;28;20020;-59
2023/06/01 06:39:53;;;;;;;3.22;1.20;;;;;;;;;;2104657;28;20032;-58
2023/06/01 06:41:12;;;;;;;8.65;1.25;;;;;;;;;;2104865;28;20451;-59
2023/06/01 06:42:31;;;;;;;5.05;1.00;;;;;;;;;;2102467;28;20446;-59
2023/06/01 06:43:50;;;;;;;8.27;1.35;;;;;;;;;;2102365;28;20036;-59
2023/06/01 06:45:09;;;;;;;5.65;1.05;;;;;;;;;;2103956;28;20032;-58
2023/06/01 06:46:28;;;;;;;12.57;1.23;;;;;;;;;;2104779;28;20032;-60
2023/06/01 06:47:47;;;;;;;2.33;0.80;;;;;;;;;;2104182;28;20031;-58
2023/06/01 06:49:06;;;;;;;5.45;1.10;;;;;;;;;;2103404;28;20489;-59
2023/06/01 06:50:25;;;;;;;7.57;1.17;;;;;;;;;;2102406;28;20536;-59
2023/06/01 06:51:44;;;;;;;4.57;0.77;;;;;;;;;;2104102;28;20114;-58
2023/06/01 06:53:04;;;;;;;7.68;1.00;;;;;;;;;;2105839;28;20040;-59
2023/06/01 06:54:23;;;;;;;2.83;0.70;;;;;;;;;;2104591;28;20436;-60
2023/06/01 06:55:42;;;;;;;7.25;1.00;;;;;;;;;;2104942;28;20020;-59
2023/06/01 06:57:02;;;;;;;3.42;1.13;;;;;;;;;;2104776;28;20036;-59
2023/06/01 06:58:22;;;;;;;5.40;0.90;;;;;;;;;;2104856;28;20051;-60
2023/06/01 06:59:40;;;;;;;11.18;1.25;;;;;;;;;;2105322;28;20040;-59
2023/06/01 07:01:04;;;;;;;6.45;1.27;;;;;;;;;;2104812;28;20020;-59
2023/06/01 07:02:23;;;;;;;11.23;1.25;;;;;;;;;;2103350;28;20020;-60
2023/06/01 07:03:42;;;;;;;6.75;0.82;;;;;;;;;;2106714;28;20098;-60
2023/06/01 07:05:03;;;;;;;8.70;1.20;;;;;;;;;;2105664;28;20036;-60
2023/06/01 07:06:22;;;;;;;2.95;1.00;;;;;;;;;;2105659;28;20036;-60
2023/06/01 07:07:42;;;;;;;2.03;1.05;;;;;;;;;;2104209;28;20031;-59
2023/06/01 07:09:01;;;;;;;11.45;1.30;;;;;;;;;;2104432;28;20035;-60
2023/06/01 07:10:20;;;;;;;4.68;1.20;;;;;;;;;;2104591;28;20055;-60
2023/06/01 07:11:39;;;;;;;7.28;1.48;;;;;;;;;;2105519;28;20044;-59
2023/06/01 07:12:58;;;;;;;4.28;0.68;;;;;;;;;;2106160;28;20078;-59
2023/06/01 07:14:17;;;;;;;4.57;1.00;;;;;;;;;;2105075;28;20028;-58
2023/06/01 07:15:36;;;;;;;4.22;1.00;;;;;;;;;;2104178;28;20031;-58
2023/06/01 07:16:55;;;;;;;5.00;1.00;;;;;;;;;;2106612;28;20041;-58
2023/06/01 07:18:14;;;;;;;4.28;0.73;;;;;;;;;;2104894;28;20035;-60
2023/06/01 07:19:33;;;;;;;4.43;1.13;;;;;;;;;;2105553;28;20021;-59
2023/06/01 07:20:52;;;;;;;7.00;1.33;;;;;;;;;;2105484;28;20020;-59
2023/06/01 07:22:11;;;;;;;4.85;0.85;;;;;;;;;;2105034;28;20036;-62
2023/06/01 07:23:31;;;;;;;8.02;1.00;;;;;;;;;;2104230;28;20032;-60
2023/06/01 07:24:49;;;;;;;4.75;1.33;;;;;;;;;;2105738;28;20019;-59
2023/06/01 07:26:09;;;;;;;2.15;0.77;;;;;;;;;;2103053;28;20664;-59
2023/06/01 07:27:28;;;;;;;3.70;1.23;;;;;;;;;;2103677;28;20092;-59
2023/06/01 07:28:52;;;;;;;8.43;1.17;;;;;;;;;;2105656;28;20016;-59
2023/06/01 07:30:12;;;;;;;4.47;1.20;;;;;;;;;;2103906;28;20477;-59
2023/06/01 07:31:31;;;;;;;4.60;1.00;;;;;;;;;;2104269;28;20020;-59
2023/06/01 07:32:50;;;;;;;6.53;1.10;;;;;;;;;;2105158;28;20028;-60
2023/06/01 07:34:09;;;;;;;4.32;1.40;;;;;;;;;;2106034;28;20028;-60
2023/06/01 07:35:28;;;;;;;8.23;1.40;;;;;;;;;;2105544;28;20055;-60
2023/06/01 07:36:48;;;;;;;3.78;0.90;;;;;;;;;;2105655;28;20020;-59
2023/06/01 07:38:08;;;;;;;3.33;0.82;;;;;;;;;;2105905;28;20024;-59
2023/06/01 07:39:27;;;;;;;6.00;0.80;;;;;;;;;;2104159;28;20028;-59
2023/06/01 07:40:46;;;;;;;1.90;0.70;;;;;;;;;;2103464;28;20020;-60
2023/06/01 07:42:05;;;;;;;1.70;0.93;;;;;;;;;;2103394;28;20468;-59
2023/06/01 07:43:24;;;;;;;4.93;1.10;;;;;;;;;;2104246;28;20024;-60
2023/06/01 07:44:45;;;;;;;6.32;1.00;;;;;;;;;;2103714;28;20369;-59
2023/06/01 07:46:05;;;;;;;2.55;0.73;;;;;;;;;;2105055;28;20677;-58
2023/06/01 07:47:25;;;;;;;3.25;0.85;;;;;;;;;;2104906;28;20430;-59
2023/06/01 07:48:43;;;;;;;1.05;0.77;;;;;;;;;;2104656;28;20024;-60
2023/06/01 07:50:03;;;;;;;3.65;1.38;;;;;;;;;;2103721;28;20459;-58
2023/06/01 07:51:22;;;;;;;4.25;0.85;;;;;;;;;;2102675;28;20032;-58
2023/06/01 07:52:41;;;;;;;3.40;1.10;;;;;;;;;;2103493;28;20032;-59
2023/06/01 07:54:01;;;;;;;4.00;1.08;;;;;;;;;;2105065;28;20028;-60
2023/06/01 07:55:20;;;;;;;6.88;1.63;;;;;;;;;;2104124;28;20385;-58
2023/06/01 07:56:39;;;;;;;10.13;2.03;;;;;;;;;;2102885;28;20476;-59
2023/06/01 07:57:58;;;;;;;7.25;1.10;;;;;;;;;;2099626;28;20043;-59
2023/06/01 07:59:17;;;;;;;7.68;1.20;;;;;;;;;;2103786;28;20103;-59